Aviation Digital Data Service (ADDS)

Output produced by TAFs form (0819 UTC 23 September 2014)
found at http://www.aviationweather.gov/adds/tafs/
 
KAPA 230753Z 16008KT 10SM BKN100 14/09 A3017 RMK AO2 SLP158 T01440094
KAPA 230540Z 2306/2406 15006KT P6SM FEW120 
     FM231800 35008KT P6SM SCT120 
     FM240200 16008KT P6SM SCT120